Time;durP1;ratioP1;P1;durP2;ratioP2;P2;SDS_P1;SDS_P2;PMS_P1;PMS_P2;Temp;Humidity;BMP_temperature;BMP_pressure;BME280_temperature;BME280_humidity;BME280_pressure;Samples;Min_cycle;Max_cycle;Signal;HPM_P1;HPM_P2
2023/12/28 00:00:39;;;;;;;;;;;;;;;;;;6276131;28;20241;-76
2023/12/28 00:03:40;;;;;;;;;;;;;;;;;;6278314;28;19921;-76
2023/12/28 00:06:41;;;;;;;;;;;;;;;;;;6277986;28;19919;-75
2023/12/28 00:09:41;;;;;;;;;;;;;;;;;;6278555;28;20348;-76
2023/12/28 00:12:41;;;;;;;;;;;;;;;;;;6283928;28;20341;-77
2023/12/28 00:15:41;;;;;;;;;;;;;;;;;;6277112;28;19995;-78
2023/12/28 00:18:41;;;;;;;;;;;;;;;;;;6274540;28;20418;-76
2023/12/28 00:21:41;;;;;;;;;;;;;;;;;;6259871;28;19921;-76
2023/12/28 00:24:41;;;;;;;;;;;;;;;;;;6282170;28;19925;-77
2023/12/28 00:27:42;;;;;;;;;;;;;;;;;;6274657;28;20704;-76
2023/12/28 00:30:42;;;;;;;;;;;;;;;;;;6275650;28;19921;-76
2023/12/28 00:33:42;;;;;;;;;;;;;;;;;;6277360;28;19991;-77
2023/12/28 00:36:42;;;;;;;;;;;;;;;;;;6283418;28;19912;-76
2023/12/28 00:39:42;;;;;;;;;;;;;;;;;;6280236;28;20273;-77
2023/12/28 00:42:42;;;;;;;;;;;;;;;;;;6282505;28;20006;-76
2023/12/28 00:45:42;;;;;;;;;;;;;;;;;;6268252;28;20082;-76
2023/12/28 00:48:43;;;;;;;;;;;;;;;;;;6282598;28;19931;-76
2023/12/28 00:51:43;;;;;;;;;;;;;;;;;;6280156;28;19924;-78
2023/12/28 00:54:43;;;;;;;;;;;;;;;;;;6272776;28;19917;-76
2023/12/28 00:57:43;;;;;;;;;;;;;;;;;;6263674;28;19938;-77
2023/12/28 01:00:43;;;;;;;;;;;;;;;;;;6274826;28;19920;-77
2023/12/28 01:03:43;;;;;;;;;;;;;;;;;;6261458;28;19929;-76
2023/12/28 01:06:43;;;;;;;;;;;;;;;;;;6283428;28;20014;-77
2023/12/28 01:09:43;;;;;;;;;;;;;;;;;;6262625;28;20027;-76
2023/12/28 01:12:44;;;;;;;;;;;;;;;;;;6282265;28;20007;-76
2023/12/28 01:15:45;;;;;;;;;;;;;;;;;;6277105;28;20436;-76
2023/12/28 01:18:45;;;;;;;;;;;;;;;;;;6280372;28;19935;-76
2023/12/28 01:21:45;;;;;;;;;;;;;;;;;;6279384;28;20614;-76
2023/12/28 01:24:45;;;;;;;;;;;;;;;;;;6277283;28;20015;-76
2023/12/28 01:27:45;;;;;;;;;;;;;;;;;;6264353;28;19920;-76
2023/12/28 01:30:46;;;;;;;;;;;;;;;;;;6275282;28;19913;-77
2023/12/28 01:33:46;;;;;;;;;;;;;;;;;;6261137;28;19921;-76
2023/12/28 01:36:46;;;;;;;;;;;;;;;;;;6279379;28;19948;-76
2023/12/28 01:39:46;;;;;;;;;;;;;;;;;;6281050;28;19913;-76
2023/12/28 01:42:46;;;;;;;;;;;;;;;;;;6282612;28;20277;-77
2023/12/28 01:45:46;;;;;;;;;;;;;;;;;;6279414;28;19982;-76
2023/12/28 01:48:47;;;;;;;;;;;;;;;;;;6277872;28;19916;-77
2023/12/28 01:51:47;;;;;;;;;;;;;;;;;;6263410;28;19921;-76
2023/12/28 01:54:47;;;;;;;;;;;;;;;;;;6280606;28;20282;-76
2023/12/28 01:57:47;;;;;;;;;;;;;;;;;;6280424;28;19939;-76
2023/12/28 02:00:47;;;;;;;;;;;;;;;;;;6277271;28;19930;-76
2023/12/28 02:03:47;;;;;;;;;;;;;;;;;;6279244;28;20444;-77
2023/12/28 02:06:47;;;;;;;;;;;;;;;;;;6262825;28;19969;-77
2023/12/28 02:09:48;;;;;;;;;;;;;;;;;;6274606;28;19920;-77
2023/12/28 02:12:49;;;;;;;;;;;;;;;;;;6282389;28;20031;-77
2023/12/28 02:15:49;;;;;;;;;;;;;;;;;;6274312;28;19912;-76
2023/12/28 02:18:49;;;;;;;;;;;;;;;;;;6282680;28;19917;-77
2023/12/28 02:21:50;;;;;;;;;;;;;;;;;;6278783;28;19919;-76
2023/12/28 02:24:50;;;;;;;;;;;;;;;;;;6274823;28;19929;-77
2023/12/28 02:27:50;;;;;;;;;;;;;;;;;;6273404;28;19921;-76
2023/12/28 02:30:50;;;;;;;;;;;;;;;;;;6277502;28;19921;-77
2023/12/28 02:33:50;;;;;;;;;;;;;;;;;;6275416;28;20281;-77
2023/12/28 02:36:50;;;;;;;;;;;;;;;;;;6281385;28;19921;-76
2023/12/28 02:39:50;;;;;;;;;;;;;;;;;;6278736;28;19957;-76
2023/12/28 02:42:51;;;;;;;;;;;;;;;;;;6280174;28;19983;-76
2023/12/28 02:45:51;;;;;;;;;;;;;;;;;;6273309;28;20273;-77
2023/12/28 02:48:52;;;;;;;;;;;;;;;;;;6278698;28;19934;-77
2023/12/28 02:51:52;;;;;;;;;;;;;;;;;;6275565;28;19927;-76
2023/12/28 02:54:53;;;;;;;;;;;;;;;;;;6281035;28;19928;-77
2023/12/28 02:57:54;;;;;;;;;;;;;;;;;;6274559;28;19924;-77
2023/12/28 03:00:55;;;;;;;;;;;;;;;;;;6275691;28;20270;-77
2023/12/28 03:03:55;;;;;;;;;;;;;;;;;;6285530;28;20397;-77
2023/12/28 03:06:55;;;;;;;;;;;;;;;;;;6274215;28;20377;-76
2023/12/28 03:09:55;;;;;;;;;;;;;;;;;;6271922;28;20269;-76
2023/12/28 03:12:55;;;;;;;;;;;;;;;;;;6274465;28;20912;-76
2023/12/28 03:15:55;;;;;;;;;;;;;;;;;;6278317;28;20373;-76
2023/12/28 03:18:55;;;;;;;;;;;;;;;;;;6272640;28;19928;-77
2023/12/28 03:21:56;;;;;;;;;;;;;;;;;;6272877;28;19913;-76
2023/12/28 03:24:56;;;;;;;;;;;;;;;;;;6275302;28;19929;-76
2023/12/28 03:27:56;;;;;;;;;;;;;;;;;;6272269;28;19920;-75
2023/12/28 03:30:58;;;;;;;;;;;;;;;;;;6272714;28;20024;-76
2023/12/28 03:33:58;;;;;;;;;;;;;;;;;;6273705;28;19967;-76
2023/12/28 03:36:58;;;;;;;;;;;;;;;;;;6275389;28;19921;-76
2023/12/28 03:39:58;;;;;;;;;;;;;;;;;;6272971;28;20443;-76
2023/12/28 03:42:59;;;;;;;;;;;;;;;;;;6279731;28;19913;-76
2023/12/28 03:45:59;;;;;;;;;;;;;;;;;;6275171;28;20020;-76
2023/12/28 03:48:59;;;;;;;;;;;;;;;;;;6274153;28;19923;-76
2023/12/28 03:51:59;;;;;;;;;;;;;;;;;;6278618;28;20011;-76
2023/12/28 03:54:59;;;;;;;;;;;;;;;;;;6265264;28;19956;-76
2023/12/28 03:58:00;;;;;;;;;;;;;;;;;;6280372;28;19962;-77
2023/12/28 04:01:00;;;;;;;;;;;;;;;;;;6267526;28;19936;-76
2023/12/28 04:04:00;;;;;;;;;;;;;;;;;;6278763;28;19928;-77
2023/12/28 04:07:00;;;;;;;;;;;;;;;;;;6278094;28;19930;-76
2023/12/28 04:10:00;;;;;;;;;;;;;;;;;;6278981;28;19943;-76
2023/12/28 04:13:01;;;;;;;;;;;;;;;;;;6281110;28;19920;-76
2023/12/28 04:16:01;;;;;;;;;;;;;;;;;;6274426;28;19920;-77
2023/12/28 04:19:01;;;;;;;;;;;;;;;;;;6276784;28;19955;-76
2023/12/28 04:22:02;;;;;;;;;;;;;;;;;;6276279;28;19964;-76
2023/12/28 04:25:02;;;;;;;;;;;;;;;;;;6276251;28;19920;-76
2023/12/28 04:28:02;;;;;;;;;;;;;;;;;;6275473;28;19920;-77
2023/12/28 04:31:02;;;;;;;;;;;;;;;;;;6275455;28;19920;-76
2023/12/28 04:34:02;;;;;;;;;;;;;;;;;;6276049;28;19912;-77
2023/12/28 04:37:02;;;;;;;;;;;;;;;;;;6276850;28;19963;-76
2023/12/28 04:40:03;;;;;;;;;;;;;;;;;;6275844;28;19974;-77
2023/12/28 04:43:04;;;;;;;;;;;;;;;;;;6277357;28;19920;-76
2023/12/28 04:46:04;;;;;;;;;;;;;;;;;;6278228;28;20439;-76
2023/12/28 04:49:04;;;;;;;;;;;;;;;;;;6275359;28;19923;-77
2023/12/28 04:52:04;;;;;;;;;;;;;;;;;;6283285;28;19920;-77
2023/12/28 04:55:04;;;;;;;;;;;;;;;;;;6275140;28;19967;-77
2023/12/28 04:58:04;;;;;;;;;;;;;;;;;;6280054;28;19920;-77
2023/12/28 05:01:04;;;;;;;;;;;;;;;;;;6274045;28;19921;-76
2023/12/28 05:04:05;;;;;;;;;;;;;;;;;;6278047;28;19935;-77
2023/12/28 05:07:05;;;;;;;;;;;;;;;;;;6277328;28;19912;-77
2023/12/28 05:10:05;;;;;;;;;;;;;;;;;;6273985;28;20325;-76
2023/12/28 05:13:05;;;;;;;;;;;;;;;;;;6277778;28;20265;-76
2023/12/28 05:16:06;;;;;;;;;;;;;;;;;;6270984;28;19913;-76
2023/12/28 05:19:06;;;;;;;;;;;;;;;;;;6277082;28;19961;-76
2023/12/28 05:22:08;;;;;;;;;;;;;;;;;;6278422;28;20311;-76
2023/12/28 05:25:08;;;;;;;;;;;;;;;;;;6277896;28;19928;-76
2023/12/28 05:28:09;;;;;;;;;;;;;;;;;;6278759;28;20012;-77
2023/12/28 05:31:09;;;;;;;;;;;;;;;;;;6279136;28;19912;-76
2023/12/28 05:34:11;;;;;;;;;;;;;;;;;;6275851;28;21363;-76
2023/12/28 05:37:11;;;;;;;;;;;;;;;;;;6275386;28;20377;-76
2023/12/28 05:40:11;;;;;;;;;;;;;;;;;;6277119;28;19943;-76
2023/12/28 05:43:11;;;;;;;;;;;;;;;;;;6278248;28;19921;-76
2023/12/28 05:46:12;;;;;;;;;;;;;;;;;;6275213;28;19930;-78
2023/12/28 05:49:12;;;;;;;;;;;;;;;;;;6274178;28;19946;-75
2023/12/28 05:52:14;;;;;;;;;;;;;;;;;;6278256;28;19982;-76
2023/12/28 05:55:15;;;;;;;;;;;;;;;;;;6279131;28;19921;-76
2023/12/28 05:58:15;;;;;;;;;;;;;;;;;;6279653;28;20016;-76
2023/12/28 06:01:15;;;;;;;;;;;;;;;;;;6273319;28;20023;-77
2023/12/28 06:04:15;;;;;;;;;;;;;;;;;;6277432;28;20001;-76
2023/12/28 06:07:15;;;;;;;;;;;;;;;;;;6279768;28;20007;-76
2023/12/28 06:10:16;;;;;;;;;;;;;;;;;;6279703;28;19975;-76
2023/12/28 06:13:16;;;;;;;;;;;;;;;;;;6279557;28;19913;-77
2023/12/28 06:16:16;;;;;;;;;;;;;;;;;;6273721;28;19920;-77
2023/12/28 06:19:16;;;;;;;;;;;;;;;;;;6274725;28;19913;-76
2023/12/28 06:22:16;;;;;;;;;;;;;;;;;;6277065;28;19919;-76
2023/12/28 06:25:17;;;;;;;;;;;;;;;;;;6277821;28;19916;-76
2023/12/28 06:28:17;;;;;;;;;;;;;;;;;;6275374;28;19918;-76
2023/12/28 06:31:17;;;;;;;;;;;;;;;;;;6274552;28;19917;-76
2023/12/28 06:34:17;;;;;;;;;;;;;;;;;;6273946;28;20289;-77
2023/12/28 06:37:18;;;;;;;;;;;;;;;;;;6271417;28;19913;-77
2023/12/28 06:40:18;;;;;;;;;;;;;;;;;;6276316;28;19916;-76
2023/12/28 06:43:18;;;;;;;;;;;;;;;;;;6272213;28;19998;-77
2023/12/28 06:46:18;;;;;;;;;;;;;;;;;;6276881;28;19928;-77
2023/12/28 06:49:18;;;;;;;;;;;;;;;;;;6272135;28;19912;-76
2023/12/28 06:52:18;;;;;;;;;;;;;;;;;;6285330;28;19916;-77
2023/12/28 06:55:19;;;;;;;;;;;;;;;;;;6263763;28;19916;-77
2023/12/28 06:58:19;;;;;;;;;;;;;;;;;;6283697;28;19958;-78
2023/12/28 07:01:19;;;;;;;;;;;;;;;;;;6262089;28;19935;-77
2023/12/28 07:04:19;;;;;;;;;;;;;;;;;;6273272;28;19954;-77
2023/12/28 07:07:19;;;;;;;;;;;;;;;;;;6277872;28;19929;-77
2023/12/28 07:10:19;;;;;;;;;;;;;;;;;;6274284;28;19913;-77
2023/12/28 07:13:19;;;;;;;;;;;;;;;;;;6275851;28;20015;-77
2023/12/28 07:16:20;;;;;;;;;;;;;;;;;;6270734;28;19964;-77
2023/12/28 07:19:20;;;;;;;;;;;;;;;;;;6276654;28;19912;-77
2023/12/28 07:22:20;;;;;;;;;;;;;;;;;;6274840;28;19920;-77
2023/12/28 07:25:21;;;;;;;;;;;;;;;;;;6272589;28;20620;-78
2023/12/28 07:28:21;;;;;;;;;;;;;;;;;;6275525;28;19925;-77
2023/12/28 07:31:21;;;;;;;;;;;;;;;;;;6275946;28;19913;-77
2023/12/28 07:34:21;;;;;;;;;;;;;;;;;;6273072;28;19919;-77
2023/12/28 07:37:21;;;;;;;;;;;;;;;;;;6278160;28;19920;-77
2023/12/28 07:40:22;;;;;;;;;;;;;;;;;;6279946;28;19931;-77
2023/12/28 07:43:22;;;;;;;;;;;;;;;;;;6286013;28;20396;-77
2023/12/28 07:46:22;;;;;;;;;;;;;;;;;;6281843;28;19917;-77
2023/12/28 07:49:23;;;;;;;;;;;;;;;;;;6282536;28;19921;-77
2023/12/28 07:52:23;;;;;;;;;;;;;;;;;;6280967;28;19957;-77
2023/12/28 07:55:23;;;;;;;;;;;;;;;;;;6268388;28;19917;-77
2023/12/28 07:58:23;;;;;;;;;;;;;;;;;;6269840;28;20369;-77
2023/12/28 08:01:25;;;;;;;;;;;;;;;;;;6268778;28;19925;-77
2023/12/28 08:04:25;;;;;;;;;;;;;;;;;;6279865;28;19920;-77
2023/12/28 08:07:25;;;;;;;;;;;;;;;;;;6281623;28;19927;-77
2023/12/28 08:10:25;;;;;;;;;;;;;;;;;;6276720;28;19918;-77
2023/12/28 08:13:25;;;;;;;;;;;;;;;;;;6280211;28;19923;-77
2023/12/28 08:16:26;;;;;;;;;;;;;;;;;;6278231;28;19918;-77
2023/12/28 08:19:26;;;;;;;;;;;;;;;;;;6280699;28;20007;-78
2023/12/28 08:22:27;;;;;;;;;;;;;;;;;;6284994;28;19917;-78
2023/12/28 08:25:28;;;;;;;;;;;;;;;;;;6282400;28;20331;-78
2023/12/28 08:28:28;;;;;;;;;;;;;;;;;;6282345;28;20134;-78
2023/12/28 08:31:29;;;;;;;;;;;;;;;;;;6274489;28;19912;-78
2023/12/28 08:34:29;;;;;;;;;;;;;;;;;;6267347;28;21153;-78
2023/12/28 08:37:30;;;;;;;;;;;;;;;;;;6282538;28;19920;-78
2023/12/28 08:40:30;;;;;;;;;;;;;;;;;;6281252;28;19938;-78
2023/12/28 08:43:30;;;;;;;;;;;;;;;;;;6282155;28;19995;-79
2023/12/28 08:46:31;;;;;;;;;;;;;;;;;;6272903;28;19913;-78
2023/12/28 08:49:33;;;;;;;;;;;;;;;;;;6290561;28;19916;-78
2023/12/28 08:52:33;;;;;;;;;;;;;;;;;;6280245;28;20332;-78
2023/12/28 08:55:36;;;;;;;;;;;;;;;;;;6285311;28;19920;-78
2023/12/28 08:58:36;;;;;;;;;;;;;;;;;;6277531;28;19912;-78
2023/12/28 09:01:37;;;;;;;;;;;;;;;;;;6275771;28;19944;-82
2023/12/28 09:04:38;;;;;;;;;;;;;;;;;;6278668;28;20308;-77
2023/12/28 09:07:42;;;;;;;;;;;;;;;;;;6280335;28;19916;-79
2023/12/28 09:10:42;;;;;;;;;;;;;;;;;;6276698;28;19928;-79
2023/12/28 09:13:43;;;;;;;;;;;;;;;;;;6275636;28;19917;-78
2023/12/28 09:16:44;;;;;;;;;;;;;;;;;;6261700;28;19920;-78
2023/12/28 09:19:44;;;;;;;;;;;;;;;;;;6269000;28;20043;-78
2023/12/28 09:22:45;;;;;;;;;;;;;;;;;;6267561;28;20385;-78
2023/12/28 09:25:46;;;;;;;;;;;;;;;;;;6277862;28;19920;-78
2023/12/28 09:28:46;;;;;;;;;;;;;;;;;;6273719;28;20531;-78
2023/12/28 09:31:46;;;;;;;;;;;;;;;;;;6277771;28;19920;-78
2023/12/28 09:34:46;;;;;;;;;;;;;;;;;;6276493;28;19919;-78
2023/12/28 09:37:47;;;;;;;;;;;;;;;;;;6276146;28;19913;-77
2023/12/28 09:40:47;;;;;;;;;;;;;;;;;;6275693;28;19921;-78
2023/12/28 09:43:47;;;;;;;;;;;;;;;;;;6272963;28;19924;-79
2023/12/28 09:46:47;;;;;;;;;;;;;;;;;;6276392;28;19917;-78
2023/12/28 09:49:47;;;;;;;;;;;;;;;;;;6282663;28;19916;-79
2023/12/28 09:52:48;;;;;;;;;;;;;;;;;;6278754;28;19924;-78
2023/12/28 09:55:48;;;;;;;;;;;;;;;;;;6268234;28;19920;-79
2023/12/28 09:58:50;;;;;;;;;;;;;;;;;;6279016;28;19913;-79
2023/12/28 10:01:50;;;;;;;;;;;;;;;;;;6274095;28;19929;-78
2023/12/28 10:04:51;;;;;;;;;;;;;;;;;;6278188;28;20451;-78
2023/12/28 10:07:51;;;;;;;;;;;;;;;;;;6277842;28;19924;-78
2023/12/28 10:10:53;;;;;;;;;;;;;;;;;;6274928;28;20853;-79
2023/12/28 10:13:54;;;;;;;;;;;;;;;;;;6266669;28;19986;-77
2023/12/28 10:16:54;;;;;;;;;;;;;;;;;;6274533;28;19912;-75
2023/12/28 10:19:55;;;;;;;;;;;;;;;;;;6274613;28;19913;-76
2023/12/28 10:22:56;;;;;;;;;;;;;;;;;;6276024;28;19919;-77
2023/12/28 10:25:56;;;;;;;;;;;;;;;;;;6263963;28;19920;-77
2023/12/28 10:28:56;;;;;;;;;;;;;;;;;;6270549;28;19920;-77
2023/12/28 10:31:56;;;;;;;;;;;;;;;;;;6276211;28;19912;-77
2023/12/28 10:34:56;;;;;;;;;;;;;;;;;;6277363;28;19959;-77
2023/12/28 10:37:56;;;;;;;;;;;;;;;;;;6271327;28;20289;-77
2023/12/28 10:40:56;;;;;;;;;;;;;;;;;;6277313;28;19958;-78
2023/12/28 10:43:57;;;;;;;;;;;;;;;;;;6273871;28;19964;-76
2023/12/28 10:46:57;;;;;;;;;;;;;;;;;;6271406;28;20284;-77
2023/12/28 10:49:57;;;;;;;;;;;;;;;;;;6275206;28;19921;-77
2023/12/28 10:52:57;;;;;;;;;;;;;;;;;;6275478;28;19936;-77
2023/12/28 10:55:57;;;;;;;;;;;;;;;;;;6275762;28;19912;-77
2023/12/28 10:58:57;;;;;;;;;;;;;;;;;;6278907;28;19913;-76
2023/12/28 11:01:57;;;;;;;;;;;;;;;;;;6276963;28;19925;-77
2023/12/28 11:04:58;;;;;;;;;;;;;;;;;;6273578;28;19928;-77
2023/12/28 11:07:58;;;;;;;;;;;;;;;;;;6276081;28;20343;-77
2023/12/28 11:11:01;;;;;;;;;;;;;;;;;;6277083;28;20344;-79
2023/12/28 11:14:01;;;;;;;;;;;;;;;;;;6278151;28;20389;-77
2023/12/28 11:17:02;;;;;;;;;;;;;;;;;;6277954;28;19917;-79
2023/12/28 11:20:04;;;;;;;;;;;;;;;;;;6283794;28;19912;-79
2023/12/28 11:23:04;;;;;;;;;;;;;;;;;;6267608;28;20003;-79
2023/12/28 11:26:04;;;;;;;;;;;;;;;;;;6275359;28;19928;-81
2023/12/28 11:29:05;;;;;;;;;;;;;;;;;;6273417;28;19952;-82
2023/12/28 11:32:05;;;;;;;;;;;;;;;;;;6281089;28;19925;-81
2023/12/28 11:35:05;;;;;;;;;;;;;;;;;;6279949;28;19920;-81
2023/12/28 11:38:08;;;;;;;;;;;;;;;;;;6278446;28;19916;-82
2023/12/28 11:41:08;;;;;;;;;;;;;;;;;;6278717;28;19951;-82
2023/12/28 11:44:09;;;;;;;;;;;;;;;;;;6262121;28;20041;-82
2023/12/28 11:47:09;;;;;;;;;;;;;;;;;;6276735;28;19923;-81
2023/12/28 11:50:09;;;;;;;;;;;;;;;;;;6281129;28;20342;-82
2023/12/28 11:53:09;;;;;;;;;;;;;;;;;;6280035;28;20367;-82
2023/12/28 11:56:10;;;;;;;;;;;;;;;;;;6278456;28;20278;-80
2023/12/28 11:59:11;;;;;;;;;;;;;;;;;;6267091;28;20327;-81
2023/12/28 12:02:11;;;;;;;;;;;;;;;;;;6278125;28;20435;-81
2023/12/28 12:05:12;;;;;;;;;;;;;;;;;;6282184;28;20391;-81
2023/12/28 12:08:14;;;;;;;;;;;;;;;;;;6281310;28;19921;-79
2023/12/28 12:11:14;;;;;;;;;;;;;;;;;;6279732;28;19919;-81
2023/12/28 12:14:14;;;;;;;;;;;;;;;;;;6274955;28;19917;-81
2023/12/28 12:17:14;;;;;;;;;;;;;;;;;;6268338;28;19912;-80
2023/12/28 12:20:14;;;;;;;;;;;;;;;;;;6276338;28;19916;-80
2023/12/28 12:23:14;;;;;;;;;;;;;;;;;;6278888;28;19994;-81
2023/12/28 12:26:15;;;;;;;;;;;;;;;;;;6281101;28;19947;-80
2023/12/28 12:29:15;;;;;;;;;;;;;;;;;;6277762;28;20397;-84
2023/12/28 12:32:15;;;;;;;;;;;;;;;;;;6280408;28;20007;-84
2023/12/28 12:35:17;;;;;;;;;;;;;;;;;;6262217;28;19921;-78
2023/12/28 12:38:17;;;;;;;;;;;;;;;;;;6276885;28;19917;-79
2023/12/28 12:41:18;;;;;;;;;;;;;;;;;;6267683;28;19921;-79
2023/12/28 12:44:18;;;;;;;;;;;;;;;;;;6277271;28;20447;-78
2023/12/28 12:47:19;;;;;;;;;;;;;;;;;;6283882;28;20353;-77
2023/12/28 12:50:19;;;;;;;;;;;;;;;;;;6277475;28;19940;-77
2023/12/28 12:53:19;;;;;;;;;;;;;;;;;;6276412;28;19919;-77
2023/12/28 12:56:19;;;;;;;;;;;;;;;;;;6273640;28;19919;-78
2023/12/28 12:59:20;;;;;;;;;;;;;;;;;;6276588;28;19977;-78
2023/12/28 13:02:20;;;;;;;;;;;;;;;;;;6274883;28;19929;-77
2023/12/28 13:05:20;;;;;;;;;;;;;;;;;;6259676;28;19961;-77
2023/12/28 13:08:20;;;;;;;;;;;;;;;;;;6277690;28;19982;-78
2023/12/28 13:11:24;;;;;;;;;;;;;;;;;;6274233;28;19913;-77
2023/12/28 13:14:25;;;;;;;;;;;;;;;;;;6274092;28;19958;-78
2023/12/28 13:17:25;;;;;;;;;;;;;;;;;;6277132;28;19917;-78
2023/12/28 13:20:25;;;;;;;;;;;;;;;;;;6274790;28;19967;-78
2023/12/28 13:23:25;;;;;;;;;;;;;;;;;;6281577;28;20339;-77
2023/12/28 13:26:25;;;;;;;;;;;;;;;;;;6278101;28;19964;-77
2023/12/28 13:29:25;;;;;;;;;;;;;;;;;;6275949;28;19928;-77
2023/12/28 13:32:25;;;;;;;;;;;;;;;;;;6274726;28;19921;-77
2023/12/28 13:35:26;;;;;;;;;;;;;;;;;;6277130;28;20003;-77
2023/12/28 13:38:27;;;;;;;;;;;;;;;;;;6274600;28;19912;-77
2023/12/28 13:41:27;;;;;;;;;;;;;;;;;;6278628;28;19912;-78
2023/12/28 13:44:28;;;;;;;;;;;;;;;;;;6264009;28;19924;-78
2023/12/28 13:47:28;;;;;;;;;;;;;;;;;;6270716;28;19916;-77
2023/12/28 13:50:28;;;;;;;;;;;;;;;;;;6275473;28;19970;-78
2023/12/28 13:53:29;;;;;;;;;;;;;;;;;;6276648;28;20253;-77
2023/12/28 13:56:29;;;;;;;;;;;;;;;;;;6269697;28;19939;-77
2023/12/28 13:59:29;;;;;;;;;;;;;;;;;;6272675;28;20327;-79
2023/12/28 14:02:29;;;;;;;;;;;;;;;;;;6277936;28;19921;-77
2023/12/28 14:05:29;;;;;;;;;;;;;;;;;;6276107;28;19940;-78
2023/12/28 14:08:29;;;;;;;;;;;;;;;;;;6274430;28;19923;-78
2023/12/28 14:11:29;;;;;;;;;;;;;;;;;;6264508;28;19956;-77
2023/12/28 14:14:29;;;;;;;;;;;;;;;;;;6264477;28;20392;-78
2023/12/28 14:17:30;;;;;;;;;;;;;;;;;;6273788;28;19913;-77
2023/12/28 14:20:30;;;;;;;;;;;;;;;;;;6272567;28;20152;-78
2023/12/28 14:23:30;;;;;;;;;;;;;;;;;;6273337;28;19919;-78
2023/12/28 14:26:31;;;;;;;;;;;;;;;;;;6272759;28;19967;-78
2023/12/28 14:29:31;;;;;;;;;;;;;;;;;;6271309;28;19958;-77
2023/12/28 14:32:31;;;;;;;;;;;;;;;;;;6274375;28;19920;-77
2023/12/28 14:35:31;;;;;;;;;;;;;;;;;;6278026;28;19913;-77
2023/12/28 14:38:31;;;;;;;;;;;;;;;;;;6275798;28;20022;-78
2023/12/28 14:41:31;;;;;;;;;;;;;;;;;;6274660;28;20055;-78
2023/12/28 14:44:31;;;;;;;;;;;;;;;;;;6269673;28;20012;-77
2023/12/28 14:47:32;;;;;;;;;;;;;;;;;;6274528;28;19912;-78
2023/12/28 14:50:32;;;;;;;;;;;;;;;;;;6275408;28;19916;-77
2023/12/28 14:53:32;;;;;;;;;;;;;;;;;;6273008;28;19944;-78
2023/12/28 14:56:32;;;;;;;;;;;;;;;;;;6276460;28;19913;-78
2023/12/28 14:59:32;;;;;;;;;;;;;;;;;;6273056;28;19920;-78
2023/12/28 15:02:33;;;;;;;;;;;;;;;;;;6272144;28;19982;-77
2023/12/28 15:05:33;;;;;;;;;;;;;;;;;;6272595;28;20366;-77
2023/12/28 15:08:33;;;;;;;;;;;;;;;;;;6266344;28;19939;-77
2023/12/28 15:11:33;;;;;;;;;;;;;;;;;;6273559;28;19912;-78
2023/12/28 15:14:33;;;;;;;;;;;;;;;;;;6271233;28;19959;-77
2023/12/28 15:17:33;;;;;;;;;;;;;;;;;;6270584;28;19920;-78
2023/12/28 15:20:34;;;;;;;;;;;;;;;;;;6275106;28;20476;-77
2023/12/28 15:23:34;;;;;;;;;;;;;;;;;;6273070;28;20164;-78
2023/12/28 15:26:34;;;;;;;;;;;;;;;;;;6274358;28;19922;-76
2023/12/28 15:29:34;;;;;;;;;;;;;;;;;;6274965;28;19913;-76
2023/12/28 15:32:35;;;;;;;;;;;;;;;;;;6277458;28;19912;-76
2023/12/28 15:35:36;;;;;;;;;;;;;;;;;;6271425;28;20325;-76
2023/12/28 15:38:36;;;;;;;;;;;;;;;;;;6273689;28;19920;-76
2023/12/28 15:41:36;;;;;;;;;;;;;;;;;;6277930;28;20044;-76
2023/12/28 15:44:36;;;;;;;;;;;;;;;;;;6268517;28;19920;-77
2023/12/28 15:47:36;;;;;;;;;;;;;;;;;;6271021;28;19921;-77
2023/12/28 15:50:37;;;;;;;;;;;;;;;;;;6274487;28;19913;-76
2023/12/28 15:53:37;;;;;;;;;;;;;;;;;;6272916;28;20007;-77
2023/12/28 15:56:37;;;;;;;;;;;;;;;;;;6274606;28;20008;-76
2023/12/28 15:59:37;;;;;;;;;;;;;;;;;;6274343;28;20007;-77
2023/12/28 16:02:37;;;;;;;;;;;;;;;;;;6277730;28;20014;-77
2023/12/28 16:05:37;;;;;;;;;;;;;;;;;;6276796;28;19917;-76
2023/12/28 16:08:37;;;;;;;;;;;;;;;;;;6277222;28;19917;-77
2023/12/28 16:11:38;;;;;;;;;;;;;;;;;;6285099;28;19934;-75
2023/12/28 16:14:38;;;;;;;;;;;;;;;;;;6274364;28;20353;-76
2023/12/28 16:17:38;;;;;;;;;;;;;;;;;;6276564;28;19913;-76
2023/12/28 16:20:38;;;;;;;;;;;;;;;;;;6278917;28;20010;-76
2023/12/28 16:23:38;;;;;;;;;;;;;;;;;;6257975;28;20383;-76
2023/12/28 16:26:38;;;;;;;;;;;;;;;;;;6276408;28;20374;-77
2023/12/28 16:29:38;;;;;;;;;;;;;;;;;;6277664;28;19912;-77
2023/12/28 16:32:39;;;;;;;;;;;;;;;;;;6276801;28;19951;-76
2023/12/28 16:35:39;;;;;;;;;;;;;;;;;;6278044;28;20086;-76
2023/12/28 16:38:39;;;;;;;;;;;;;;;;;;6277039;28;19920;-76
2023/12/28 16:41:40;;;;;;;;;;;;;;;;;;6280957;28;19927;-77
2023/12/28 16:44:40;;;;;;;;;;;;;;;;;;6265675;28;20400;-77
2023/12/28 16:47:40;;;;;;;;;;;;;;;;;;6279291;28;20311;-77
2023/12/28 16:50:40;;;;;;;;;;;;;;;;;;6268105;28;20269;-76
2023/12/28 16:53:40;;;;;;;;;;;;;;;;;;6277201;28;19913;-79
2023/12/28 16:56:40;;;;;;;;;;;;;;;;;;6282442;28;19912;-78
2023/12/28 16:59:41;;;;;;;;;;;;;;;;;;6274230;28;19920;-80
2023/12/28 17:02:41;;;;;;;;;;;;;;;;;;6295400;28;20348;-79
2023/12/28 17:05:41;;;;;;;;;;;;;;;;;;6279849;28;20074;-79
2023/12/28 17:08:41;;;;;;;;;;;;;;;;;;6296882;28;19923;-79
2023/12/28 17:11:42;;;;;;;;;;;;;;;;;;6281127;28;19913;-79
2023/12/28 17:14:42;;;;;;;;;;;;;;;;;;6272437;28;19928;-77
2023/12/28 17:17:42;;;;;;;;;;;;;;;;;;6275397;28;19917;-77
2023/12/28 17:20:42;;;;;;;;;;;;;;;;;;6280519;28;19916;-80
2023/12/28 17:23:43;;;;;;;;;;;;;;;;;;6286690;28;19912;-78
2023/12/28 17:26:43;;;;;;;;;;;;;;;;;;6263872;28;20293;-77
2023/12/28 17:29:43;;;;;;;;;;;;;;;;;;6269509;28;20452;-77
2023/12/28 17:32:44;;;;;;;;;;;;;;;;;;6279646;28;20321;-79
2023/12/28 17:35:44;;;;;;;;;;;;;;;;;;6282142;28;20277;-77
2023/12/28 17:38:45;;;;;;;;;;;;;;;;;;6273280;28;19924;-78
2023/12/28 17:41:46;;;;;;;;;;;;;;;;;;6277642;28;19921;-79
2023/12/28 17:44:46;;;;;;;;;;;;;;;;;;6272795;28;19928;-79
2023/12/28 17:47:47;;;;;;;;;;;;;;;;;;6295908;28;19921;-78
2023/12/28 17:50:47;;;;;;;;;;;;;;;;;;6270084;28;20354;-79
2023/12/28 17:53:47;;;;;;;;;;;;;;;;;;6264104;28;20292;-76
2023/12/28 17:56:47;;;;;;;;;;;;;;;;;;6283191;28;19974;-75
2023/12/28 17:59:48;;;;;;;;;;;;;;;;;;6275964;28;19928;-76
2023/12/28 18:02:48;;;;;;;;;;;;;;;;;;6278340;28;20304;-80
2023/12/28 18:05:48;;;;;;;;;;;;;;;;;;6277205;28;19921;-77
2023/12/28 18:08:49;;;;;;;;;;;;;;;;;;6275941;28;20403;-77
2023/12/28 18:11:49;;;;;;;;;;;;;;;;;;6277050;28;19916;-78
2023/12/28 18:14:49;;;;;;;;;;;;;;;;;;6274008;28;20063;-77
2023/12/28 18:17:49;;;;;;;;;;;;;;;;;;6271049;28;20003;-79
2023/12/28 18:20:52;;;;;;;;;;;;;;;;;;6276155;28;19913;-77
2023/12/28 18:23:52;;;;;;;;;;;;;;;;;;6265369;28;20047;-78
2023/12/28 18:26:52;;;;;;;;;;;;;;;;;;6273489;28;20399;-83
2023/12/28 18:29:53;;;;;;;;;;;;;;;;;;6268884;28;19971;-80
2023/12/28 18:32:55;;;;;;;;;;;;;;;;;;6273284;28;19913;-80
2023/12/28 18:35:55;;;;;;;;;;;;;;;;;;6273318;28;19916;-78
2023/12/28 18:38:56;;;;;;;;;;;;;;;;;;6272075;28;19943;-78
2023/12/28 18:41:57;;;;;;;;;;;;;;;;;;6273060;28;20062;-77
2023/12/28 18:44:57;;;;;;;;;;;;;;;;;;6268378;28;19967;-77
2023/12/28 18:47:58;;;;;;;;;;;;;;;;;;6274172;28;20276;-78
2023/12/28 18:50:58;;;;;;;;;;;;;;;;;;6272764;28;19912;-76
2023/12/28 18:53:58;;;;;;;;;;;;;;;;;;6277848;28;19919;-76
2023/12/28 18:56:58;;;;;;;;;;;;;;;;;;6272334;28;19917;-76
2023/12/28 18:59:58;;;;;;;;;;;;;;;;;;6268310;28;19955;-75
2023/12/28 19:02:58;;;;;;;;;;;;;;;;;;6272253;28;19924;-78
2023/12/28 19:06:00;;;;;;;;;;;;;;;;;;6271002;28;19920;-77
2023/12/28 19:09:04;;;;;;;;;;;;;;;;;;6257085;28;20335;-77
2023/12/28 19:12:04;;;;;;;;;;;;;;;;;;6277664;28;19920;-77
2023/12/28 19:15:06;;;;;;;;;;;;;;;;;;6271469;28;19966;-78
2023/12/28 19:18:06;;;;;;;;;;;;;;;;;;6269893;28;20380;-76
2023/12/28 19:21:06;;;;;;;;;;;;;;;;;;6273315;28;19996;-77
2023/12/28 19:24:06;;;;;;;;;;;;;;;;;;6273567;28;20134;-78
2023/12/28 19:27:06;;;;;;;;;;;;;;;;;;6274801;28;20027;-78
2023/12/28 19:30:06;;;;;;;;;;;;;;;;;;6271680;28;19962;-77
2023/12/28 19:33:07;;;;;;;;;;;;;;;;;;6275412;28;19916;-76
2023/12/28 19:36:07;;;;;;;;;;;;;;;;;;6275871;28;19917;-76
2023/12/28 19:39:07;;;;;;;;;;;;;;;;;;6277951;28;19913;-77
2023/12/28 19:42:07;;;;;;;;;;;;;;;;;;6278670;28;19950;-76
2023/12/28 19:45:08;;;;;;;;;;;;;;;;;;6276903;28;20328;-78
2023/12/28 19:48:09;;;;;;;;;;;;;;;;;;6280606;28;20336;-77
2023/12/28 19:51:09;;;;;;;;;;;;;;;;;;6280117;28;19951;-76
2023/12/28 19:54:09;;;;;;;;;;;;;;;;;;6279475;28;20034;-78
2023/12/28 19:57:09;;;;;;;;;;;;;;;;;;6277735;28;19913;-77
2023/12/28 20:00:12;;;;;;;;;;;;;;;;;;6274787;28;19913;-78
2023/12/28 20:03:12;;;;;;;;;;;;;;;;;;6278349;28;19925;-80
2023/12/28 20:06:12;;;;;;;;;;;;;;;;;;6277397;28;19924;-76
2023/12/28 20:09:12;;;;;;;;;;;;;;;;;;6277099;28;19917;-76
2023/12/28 20:12:13;;;;;;;;;;;;;;;;;;6264204;28;19966;-74
2023/12/28 20:15:15;;;;;;;;;;;;;;;;;;6274993;28;19913;-76
2023/12/28 20:18:15;;;;;;;;;;;;;;;;;;6279944;28;20059;-76
2023/12/28 20:21:15;;;;;;;;;;;;;;;;;;6278793;28;19917;-77
2023/12/28 20:24:15;;;;;;;;;;;;;;;;;;6278598;28;19988;-77
2023/12/28 20:27:15;;;;;;;;;;;;;;;;;;6278654;28;20442;-76
2023/12/28 20:30:17;;;;;;;;;;;;;;;;;;6277810;28;19913;-78